Time;durP1;ratioP1;P1;durP2;ratioP2;P2;SDS_P1;SDS_P2;PMS_P1;PMS_P2;Temp;Humidity;BMP_temperature;BMP_pressure;BME280_temperature;BME280_humidity;BME280_pressure;Samples;Min_cycle;Max_cycle;Signal;HPM_P1;HPM_P2
2024/01/11 00:00:07;;;;;;;23.48;9.13;;;;;;;-3.25;96.81;101722.16;5074132;28;20047;-69
2024/01/11 00:02:32;;;;;;;21.65;8.25;;;;;;;-3.22;96.79;101717.84;5068888;28;20514;-69
2024/01/11 00:04:58;;;;;;;16.98;8.52;;;;;;;-3.25;96.05;101711.97;5071931;28;20049;-69
2024/01/11 00:07:23;;;;;;;16.70;8.02;;;;;;;-3.25;96.02;101707.72;5069529;28;20109;-69
2024/01/11 00:09:49;;;;;;;23.27;9.20;;;;;;;-3.26;95.85;101715.38;5071781;28;20044;-70
2024/01/11 00:12:14;;;;;;;19.73;6.90;;;;;;;-3.33;95.79;101704.47;5071483;28;20056;-69
2024/01/11 00:14:40;;;;;;;16.83;7.20;;;;;;;-3.21;95.03;101703.41;5068463;28;20082;-69
2024/01/11 00:17:05;;;;;;;16.45;6.18;;;;;;;-3.10;93.09;101710.00;5069344;28;20033;-69
2024/01/11 00:19:31;;;;;;;17.65;6.95;;;;;;;-3.16;92.51;101701.63;5073911;28;20036;-69
2024/01/11 00:21:57;;;;;;;14.55;5.65;;;;;;;-3.19;89.34;101699.97;5075239;28;20072;-69
2024/01/11 00:24:22;;;;;;;15.43;6.07;;;;;;;-3.16;90.96;101694.81;5075857;28;20126;-69
2024/01/11 00:26:48;;;;;;;14.00;6.80;;;;;;;-3.25;91.57;101689.88;5070424;28;20032;-69
2024/01/11 00:29:13;;;;;;;22.98;7.15;;;;;;;-3.32;92.69;101695.13;5075743;28;20044;-69
2024/01/11 00:31:39;;;;;;;18.38;6.85;;;;;;;-3.38;92.80;101696.91;5071143;28;20382;-69
2024/01/11 00:34:04;;;;;;;18.80;7.75;;;;;;;-3.39;93.71;101689.28;5073400;28;20314;-69
2024/01/11 00:36:30;;;;;;;17.15;7.50;;;;;;;-3.36;93.84;101689.25;5069768;28;20021;-70
2024/01/11 00:38:56;;;;;;;15.85;7.07;;;;;;;-3.43;93.93;101698.69;5069997;28;20411;-70
2024/01/11 00:41:21;;;;;;;21.80;9.23;;;;;;;-3.46;94.74;101691.09;5070380;28;20111;-70
2024/01/11 00:43:47;;;;;;;26.75;8.43;;;;;;;-3.37;94.84;101687.56;5072715;28;20123;-69
2024/01/11 00:46:12;;;;;;;26.65;9.77;;;;;;;-3.41;95.49;101685.94;5073598;28;20489;-69
2024/01/11 00:48:38;;;;;;;18.80;8.23;;;;;;;-3.45;95.51;101681.75;5072454;28;20037;-69
2024/01/11 00:51:07;;;;;;;27.67;9.60;;;;;;;-3.51;96.06;101681.84;5070799;28;20386;-68
2024/01/11 00:53:33;;;;;;;22.30;7.15;;;;;;;-3.55;96.50;101678.50;5066711;28;20430;-69
2024/01/11 00:55:59;;;;;;;19.27;8.68;;;;;;;-3.53;97.20;101678.47;5070704;28;20402;-69
2024/01/11 00:58:24;;;;;;;21.98;8.23;;;;;;;-3.57;97.29;101682.78;5068904;28;20033;-69
2024/01/11 01:00:49;;;;;;;17.08;7.32;;;;;;;-3.56;97.15;101678.53;5073423;28;20044;-70
2024/01/11 01:03:16;;;;;;;18.33;5.60;;;;;;;-3.58;96.87;101678.56;5069389;28;20064;-69
2024/01/11 01:05:42;;;;;;;19.00;7.55;;;;;;;-3.61;97.04;101677.75;5072700;28;20023;-69
2024/01/11 01:08:07;;;;;;;20.80;7.90;;;;;;;-3.58;97.57;101677.72;5069995;28;20393;-69
2024/01/11 01:10:33;;;;;;;18.63;6.97;;;;;;;-3.56;97.76;101669.19;5074902;28;20036;-69
2024/01/11 01:12:58;;;;;;;22.08;7.20;;;;;;;-3.58;97.30;101672.63;5070166;28;20054;-69
2024/01/11 01:15:24;;;;;;;16.63;7.60;;;;;;;-3.55;97.72;101683.59;5070241;28;20059;-69
2024/01/11 01:17:49;;;;;;;22.90;6.45;;;;;;;-3.55;97.98;101670.03;5069502;28;20183;-70
2024/01/11 01:20:15;;;;;;;15.63;7.72;;;;;;;-3.52;98.16;101672.53;5073666;28;20028;-69
2024/01/11 01:22:40;;;;;;;18.45;7.05;;;;;;;-3.54;97.53;101674.25;5068037;28;20043;-69
2024/01/11 01:25:06;;;;;;;17.42;6.97;;;;;;;-3.55;97.52;101670.03;5069616;28;20043;-69
2024/01/11 01:27:31;;;;;;;18.77;4.80;;;;;;;-3.52;98.02;101664.88;5071054;28;20024;-69
2024/01/11 01:29:57;;;;;;;15.32;6.18;;;;;;;-3.55;98.14;101667.47;5068973;28;20190;-69
2024/01/11 01:32:22;;;;;;;16.25;7.05;;;;;;;-3.56;98.39;101668.34;5070586;28;20481;-69
2024/01/11 01:34:47;;;;;;;18.98;6.28;;;;;;;-3.57;98.07;101669.22;5069896;28;20067;-69
2024/01/11 01:37:13;;;;;;;16.85;7.05;;;;;;;-3.60;98.66;101664.16;5069568;28;20555;-69
2024/01/11 01:39:38;;;;;;;20.90;7.32;;;;;;;-3.61;99.15;101663.31;5073444;28;20549;-69
2024/01/11 01:42:05;;;;;;;13.68;5.57;;;;;;;-3.61;99.84;101658.22;5073741;28;20444;-69
2024/01/11 01:44:31;;;;;;;13.88;6.82;;;;;;;-3.62;99.72;101671.84;5069903;28;20033;-69
2024/01/11 01:46:56;;;;;;;10.45;5.55;;;;;;;-3.67;99.38;101663.41;5067735;28;20364;-69
2024/01/11 01:49:23;;;;;;;14.30;6.63;;;;;;;-3.70;99.70;101659.22;5070296;28;20040;-69
2024/01/11 01:51:49;;;;;;;17.50;6.35;;;;;;;-3.68;99.22;101661.75;5072518;28;20129;-69
2024/01/11 01:54:16;;;;;;;15.27;6.35;;;;;;;-3.71;99.87;101660.09;5068292;28;20064;-69
2024/01/11 01:56:42;;;;;;;13.75;5.28;;;;;;;-3.69;99.93;101660.06;5068795;28;20042;-69
2024/01/11 01:59:10;;;;;;;17.48;6.50;;;;;;;-3.75;98.94;101661.00;5067939;28;20946;-69
2024/01/11 02:01:36;;;;;;;14.23;4.93;;;;;;;-3.76;99.42;101656.75;5074416;28;20118;-69
2024/01/11 02:04:01;;;;;;;12.93;5.18;;;;;;;-3.72;98.60;101660.09;5066274;28;20174;-69
2024/01/11 02:06:30;;;;;;;11.82;4.88;;;;;;;-3.76;97.81;101653.38;5071074;28;20020;-69
2024/01/11 02:08:56;;;;;;;17.83;4.85;;;;;;;-3.75;98.73;101655.91;5068713;28;20032;-69
2024/01/11 02:11:23;;;;;;;12.95;4.80;;;;;;;-3.66;98.37;101660.00;5068131;28;20032;-69
2024/01/11 02:13:50;;;;;;;10.43;5.65;;;;;;;-3.67;98.10;101659.16;5067340;28;20081;-70
2024/01/11 02:16:16;;;;;;;13.18;4.55;;;;;;;-3.72;97.66;101653.31;5069496;28;20137;-69
2024/01/11 02:18:41;;;;;;;12.35;4.90;;;;;;;-3.68;97.56;101661.75;5064949;28;20431;-69
2024/01/11 02:21:11;;;;;;;10.68;4.82;;;;;;;-3.68;97.71;101664.28;5068038;28;20118;-69
2024/01/11 02:23:45;;;;;;;15.98;5.35;;;;;;;-3.71;98.46;101660.09;5066105;28;20109;-69
2024/01/11 02:26:12;;;;;;;13.38;5.45;;;;;;;-3.73;98.99;101659.25;5068810;28;20028;-69
2024/01/11 02:28:37;;;;;;;13.40;5.78;;;;;;;-3.75;99.22;101655.91;5072018;28;20478;-70
2024/01/11 02:31:03;;;;;;;11.80;5.55;;;;;;;-3.81;99.27;101661.13;5075815;28;20042;-70
2024/01/11 02:33:28;;;;;;;15.07;4.95;;;;;;;-3.87;99.60;101645.94;5070350;28;20044;-69
2024/01/11 02:35:54;;;;;;;11.88;5.20;;;;;;;-3.87;99.90;101650.19;5067920;28;20021;-70
2024/01/11 02:38:20;;;;;;;13.70;4.75;;;;;;;-3.83;100.00;101642.47;5070616;28;20106;-68
2024/01/11 02:40:46;;;;;;;13.30;6.10;;;;;;;-3.82;100.00;101645.88;5066314;28;20044;-69
2024/01/11 02:43:12;;;;;;;12.57;5.00;;;;;;;-3.85;100.00;101648.47;5068906;28;20032;-69
2024/01/11 02:45:38;;;;;;;12.63;4.53;;;;;;;-3.94;100.00;101644.34;5066163;28;20025;-69
2024/01/11 02:48:03;;;;;;;11.35;5.05;;;;;;;-3.93;100.00;101640.09;5067467;28;20075;-69
2024/01/11 02:50:29;;;;;;;12.05;5.15;;;;;;;-3.95;100.00;101646.91;5067557;28;20036;-69
2024/01/11 02:52:54;;;;;;;13.23;5.38;;;;;;;-3.93;100.00;101640.94;5073403;28;20470;-69
2024/01/11 02:55:19;;;;;;;13.65;6.38;;;;;;;-3.97;100.00;101646.09;5068961;28;20474;-69
2024/01/11 02:57:45;;;;;;;10.95;4.35;;;;;;;-4.02;100.00;101643.63;5069844;28;20545;-69
2024/01/11 03:00:11;;;;;;;11.15;5.50;;;;;;;-4.02;100.00;101647.00;5068343;28;20045;-69
2024/01/11 03:02:41;;;;;;;20.20;5.30;;;;;;;-4.04;100.00;101642.81;5066533;28;20039;-69
2024/01/11 03:05:06;;;;;;;10.60;4.95;;;;;;;-4.02;100.00;101641.91;5068473;28;20083;-69
2024/01/11 03:07:32;;;;;;;11.10;5.03;;;;;;;-4.05;100.00;101631.78;5072036;28;20473;-69
2024/01/11 03:09:58;;;;;;;14.18;5.13;;;;;;;-4.05;100.00;101631.78;5071291;28;20036;-69
2024/01/11 03:12:25;;;;;;;13.63;5.57;;;;;;;-4.07;100.00;101627.56;5074680;28;20044;-69
2024/01/11 03:14:51;;;;;;;10.15;4.32;;;;;;;-4.03;100.00;101629.22;5067364;28;20420;-69
2024/01/11 03:17:16;;;;;;;9.27;4.18;;;;;;;-3.99;100.00;101624.91;5066916;28;20054;-69
2024/01/11 03:19:42;;;;;;;10.68;4.43;;;;;;;-3.94;100.00;101621.44;5067965;28;20060;-69
2024/01/11 03:22:07;;;;;;;10.60;3.83;;;;;;;-3.97;100.00;101618.94;5070960;28;20034;-69
2024/01/11 03:24:33;;;;;;;16.23;4.30;;;;;;;-3.99;100.00;101620.66;5067595;28;20111;-69
2024/01/11 03:26:58;;;;;;;10.48;4.93;;;;;;;-3.99;100.00;101628.31;5070895;28;20479;-69
2024/01/11 03:29:24;;;;;;;6.28;3.75;;;;;;;-3.98;100.00;101631.69;5071104;28;20037;-69
2024/01/11 03:31:49;;;;;;;7.25;2.72;;;;;;;-4.01;100.00;101630.03;5066643;28;20063;-69
2024/01/11 03:34:15;;;;;;;7.70;3.40;;;;;;;-3.98;100.00;101626.59;5067344;28;20482;-69
2024/01/11 03:36:40;;;;;;;10.90;3.85;;;;;;;-3.96;100.00;101624.88;5069921;28;20033;-69
2024/01/11 03:39:06;;;;;;;18.48;3.72;;;;;;;-3.96;100.00;101624.88;5068525;28;20094;-69
2024/01/11 03:41:31;;;;;;;15.20;3.33;;;;;;;-4.00;99.45;101613.88;5068994;28;20032;-69
2024/01/11 03:43:57;;;;;;;6.95;3.08;;;;;;;-4.04;100.00;101628.38;5071875;28;20036;-69
2024/01/11 03:46:22;;;;;;;9.90;3.17;;;;;;;-4.03;100.00;101627.50;5068066;28;20032;-69
2024/01/11 03:48:48;;;;;;;9.05;3.55;;;;;;;-3.98;100.00;101631.69;5068368;28;20032;-69
2024/01/11 03:51:13;;;;;;;9.70;4.47;;;;;;;-3.91;100.00;101633.28;5068428;28;20032;-69
2024/01/11 03:53:39;;;;;;;7.80;3.55;;;;;;;-3.99;99.82;101623.22;5068363;28;20036;-70
2024/01/11 03:56:04;;;;;;;13.60;4.80;;;;;;;-4.07;100.00;101630.97;5068713;28;20043;-69
2024/01/11 03:58:30;;;;;;;9.38;4.65;;;;;;;-4.14;100.00;101620.91;5065217;28;20032;-70
2024/01/11 04:00:55;;;;;;;8.98;3.83;;;;;;;-4.21;100.00;101616.75;5068790;28;20116;-69
2024/01/11 04:03:21;;;;;;;12.20;3.83;;;;;;;-4.18;100.00;101621.81;5067948;28;20146;-69
2024/01/11 04:05:46;;;;;;;8.43;4.30;;;;;;;-4.17;100.00;101613.31;5068343;28;20043;-70
2024/01/11 04:08:12;;;;;;;13.02;4.28;;;;;;;-4.19;100.00;101617.56;5074963;28;20036;-69
2024/01/11 04:10:37;;;;;;;10.52;3.55;;;;;;;-4.20;100.00;101618.44;5070665;28;20043;-69
2024/01/11 04:13:03;;;;;;;14.98;4.43;;;;;;;-4.22;100.00;101612.53;5077104;28;20089;-70
2024/01/11 04:15:28;;;;;;;10.02;4.30;;;;;;;-4.21;100.00;101609.97;5069290;28;20041;-69
2024/01/11 04:17:54;;;;;;;6.70;3.65;;;;;;;-4.23;100.00;101611.69;5073263;28;20024;-69
2024/01/11 04:20:19;;;;;;;15.27;5.18;;;;;;;-4.24;100.00;101610.00;5071575;28;20054;-69
2024/01/11 04:22:44;;;;;;;8.95;3.75;;;;;;;-4.21;100.00;101604.88;5069153;28;20037;-69
2024/01/11 04:25:11;;;;;;;12.20;3.72;;;;;;;-4.18;100.00;101604.81;5079188;28;20470;-69
2024/01/11 04:27:36;;;;;;;7.03;2.72;;;;;;;-4.07;100.00;101609.75;5073982;28;20036;-69
2024/01/11 04:30:02;;;;;;;12.63;3.90;;;;;;;-4.09;100.00;101608.94;5070347;28;20035;-70
2024/01/11 04:32:27;;;;;;;11.65;3.53;;;;;;;-4.15;100.00;101609.88;5063603;28;20033;-69
2024/01/11 04:34:52;;;;;;;11.48;3.78;;;;;;;-4.23;100.00;101608.31;5068618;28;20446;-69
2024/01/11 04:37:18;;;;;;;8.18;3.45;;;;;;;-4.27;100.00;101604.16;5072931;28;20496;-69
2024/01/11 04:39:44;;;;;;;9.77;4.30;;;;;;;-4.26;100.00;101599.03;5066485;28;20068;-69
2024/01/11 04:42:10;;;;;;;7.55;3.33;;;;;;;-4.27;100.00;101604.16;5073490;28;20063;-69
2024/01/11 04:44:36;;;;;;;8.15;2.60;;;;;;;-4.25;100.00;101604.97;5072666;28;20397;-69
2024/01/11 04:47:01;;;;;;;7.72;4.45;;;;;;;-4.29;100.00;101608.44;5070245;28;20035;-69
2024/01/11 04:49:27;;;;;;;9.30;3.83;;;;;;;-4.28;100.00;101594.84;5068172;28;20353;-69
2024/01/11 04:51:52;;;;;;;7.63;3.45;;;;;;;-4.29;100.00;101594.00;5068021;28;20488;-69
2024/01/11 04:54:18;;;;;;;12.70;4.25;;;;;;;-4.33;100.00;101591.53;5068667;28;20137;-69
2024/01/11 04:56:43;;;;;;;7.55;2.88;;;;;;;-4.38;100.00;101599.22;5066402;28;20082;-69
2024/01/11 04:59:09;;;;;;;7.95;3.53;;;;;;;-4.34;100.00;101603.41;5070597;28;20052;-69
2024/01/11 05:01:35;;;;;;;8.45;2.90;;;;;;;-4.33;100.00;101596.59;5072457;28;20037;-68
2024/01/11 05:04:01;;;;;;;13.13;3.17;;;;;;;-4.33;100.00;101594.06;5068107;28;20046;-68
2024/01/11 05:06:26;;;;;;;6.63;2.45;;;;;;;-4.37;100.00;101589.03;5070191;28;20029;-67
2024/01/11 05:08:52;;;;;;;7.75;2.25;;;;;;;-4.31;100.00;101587.25;5074603;28;20036;-67
2024/01/11 05:11:18;;;;;;;9.27;3.08;;;;;;;-4.33;100.00;101588.97;5069815;28;20032;-68
2024/01/11 05:13:45;;;;;;;9.63;3.42;;;;;;;-4.43;100.00;101584.03;5069266;28;20050;-71
2024/01/11 05:16:24;;;;;;;10.45;3.88;;;;;;;-4.49;100.00;101593.44;5070416;28;20558;-68
2024/01/11 05:18:54;;;;;;;7.38;3.42;;;;;;;-4.42;100.00;101589.94;5073661;28;20395;-73
2024/01/11 05:21:21;;;;;;;7.43;3.60;;;;;;;-4.43;100.00;101581.47;5068337;28;20043;-68
2024/01/11 05:23:46;;;;;;;8.15;4.25;;;;;;;-4.48;100.00;101580.69;5072166;28;20035;-68
2024/01/11 05:26:14;;;;;;;5.22;3.15;;;;;;;-4.49;100.00;101584.09;5069556;28;20361;-69
2024/01/11 05:28:39;;;;;;;14.00;3.95;;;;;;;-4.40;100.00;101578.88;5067536;28;20439;-69
2024/01/11 05:31:09;;;;;;;7.53;3.83;;;;;;;-4.36;100.00;101577.97;5072075;28;20039;-69
2024/01/11 05:33:35;;;;;;;14.63;3.85;;;;;;;-4.36;100.00;101575.44;5067365;28;20055;-66
2024/01/11 05:36:01;;;;;;;16.27;4.80;;;;;;;-4.42;100.00;101579.78;5065125;28;21146;-66
2024/01/11 05:38:26;;;;;;;11.05;3.70;;;;;;;-4.45;100.00;101585.75;5068755;28;20035;-65
2024/01/11 05:40:52;;;;;;;8.10;3.33;;;;;;;-4.44;100.00;101584.88;5071570;28;20039;-66
2024/01/11 05:43:17;;;;;;;11.05;3.50;;;;;;;-4.43;100.00;101584.03;5072205;28;20486;-66
2024/01/11 05:45:43;;;;;;;10.60;3.10;;;;;;;-4.43;100.00;101594.19;5067866;28;20035;-66
2024/01/11 05:48:10;;;;;;;9.68;3.33;;;;;;;-4.45;100.00;101588.28;5072617;28;20032;-65
2024/01/11 05:50:36;;;;;;;9.70;3.70;;;;;;;-4.48;100.00;101588.34;5065749;28;20090;-66
2024/01/11 05:53:02;;;;;;;6.63;3.17;;;;;;;-4.48;100.00;101588.34;5065967;28;20020;-66
2024/01/11 05:55:28;;;;;;;9.90;3.17;;;;;;;-4.45;100.00;101584.91;5068567;28;20569;-66
2024/01/11 05:57:53;;;;;;;8.82;4.45;;;;;;;-4.47;100.00;101600.19;5068529;28;20029;-66
2024/01/11 06:00:19;;;;;;;7.80;3.92;;;;;;;-4.51;100.00;101597.72;5068800;28;20024;-66
2024/01/11 06:02:44;;;;;;;10.43;3.50;;;;;;;-4.47;100.00;101592.56;5067518;28;20032;-66
2024/01/11 06:05:12;;;;;;;11.05;4.15;;;;;;;-4.30;100.00;101596.56;5069546;28;20020;-66
2024/01/11 06:07:38;;;;;;;7.63;3.78;;;;;;;-4.36;100.00;101590.69;5068510;28;20436;-66
2024/01/11 06:10:05;;;;;;;9.70;4.85;;;;;;;-4.40;100.00;101583.13;5069513;28;20032;-66
2024/01/11 06:12:31;;;;;;;9.20;3.15;;;;;;;-4.42;100.00;101585.69;5068675;28;20048;-66
2024/01/11 06:14:57;;;;;;;8.88;4.43;;;;;;;-4.43;100.00;101584.03;5069645;28;20032;-67
2024/01/11 06:17:23;;;;;;;9.77;3.70;;;;;;;-4.43;100.00;101584.03;5068767;28;20038;-66
2024/01/11 06:19:49;;;;;;;10.35;3.40;;;;;;;-4.49;100.00;101584.09;5066243;28;20041;-66
2024/01/11 06:22:14;;;;;;;10.15;4.95;;;;;;;-4.52;100.00;101589.22;5069835;28;20398;-66
2024/01/11 06:24:40;;;;;;;13.55;3.72;;;;;;;-4.56;100.00;101594.38;5069054;28;20119;-66
2024/01/11 06:27:05;;;;;;;13.27;4.38;;;;;;;-4.57;100.00;101588.47;5069212;28;20108;-66
2024/01/11 06:29:31;;;;;;;16.02;4.30;;;;;;;-4.61;100.00;101581.72;5069527;28;20036;-66
2024/01/11 06:31:56;;;;;;;9.60;3.45;;;;;;;-4.62;100.00;101577.50;5069235;28;20420;-66
2024/01/11 06:34:22;;;;;;;10.57;4.93;;;;;;;-4.58;100.00;101589.31;5069775;28;20101;-66
2024/01/11 06:36:47;;;;;;;14.07;4.10;;;;;;;-4.51;100.00;101587.53;5068424;28;20040;-66
2024/01/11 06:39:12;;;;;;;13.82;4.50;;;;;;;-4.55;100.00;101580.81;5069075;28;20040;-66
2024/01/11 06:41:38;;;;;;;9.18;3.90;;;;;;;-4.55;100.00;101583.34;5068689;28;20029;-66
2024/01/11 06:44:04;;;;;;;11.70;5.30;;;;;;;-4.57;100.00;101588.47;5068746;28;20029;-67
2024/01/11 06:46:30;;;;;;;16.58;4.53;;;;;;;-4.54;100.00;101585.88;5068134;28;20040;-66
2024/01/11 06:48:55;;;;;;;10.52;5.40;;;;;;;-4.52;100.00;101578.22;5068335;28;20029;-66
2024/01/11 06:51:22;;;;;;;11.45;4.95;;;;;;;-4.56;100.00;101586.75;5065449;28;20036;-66
2024/01/11 06:53:48;;;;;;;14.20;5.03;;;;;;;-4.52;100.00;101586.69;5064019;28;20517;-66
2024/01/11 06:56:15;;;;;;;13.10;4.82;;;;;;;-4.45;100.00;101588.28;5069233;28;20043;-65
2024/01/11 06:58:40;;;;;;;18.17;7.00;;;;;;;-4.44;100.00;101577.25;5068197;28;20033;-66
2024/01/11 07:01:06;;;;;;;14.52;6.03;;;;;;;-4.46;100.00;101578.97;5068688;28;20034;-66
2024/01/11 07:03:31;;;;;;;17.42;6.65;;;;;;;-4.43;100.00;101578.09;5067936;28;20063;-66
2024/01/11 07:05:57;;;;;;;16.63;5.22;;;;;;;-4.40;100.00;101583.13;5069549;28;20098;-67
2024/01/11 07:08:22;;;;;;;24.50;5.80;;;;;;;-4.40;100.00;101580.59;5067914;28;20051;-66
2024/01/11 07:10:48;;;;;;;12.65;5.55;;;;;;;-4.42;100.00;101578.06;5067808;28;20043;-66
2024/01/11 07:13:16;;;;;;;14.90;5.47;;;;;;;-4.35;100.00;101581.38;5069245;28;20039;-66
2024/01/11 07:15:42;;;;;;;15.50;5.22;;;;;;;-4.29;100.00;101585.53;5066002;28;20033;-66
2024/01/11 07:18:07;;;;;;;18.50;6.57;;;;;;;-4.26;100.00;101582.94;5068729;28;20108;-66
2024/01/11 07:20:33;;;;;;;11.88;5.00;;;;;;;-4.27;100.00;101574.47;5068040;28;20506;-66
2024/01/11 07:22:59;;;;;;;15.75;5.40;;;;;;;-4.26;100.00;101571.06;5068806;28;20035;-66
2024/01/11 07:25:25;;;;;;;14.55;5.18;;;;;;;-4.24;100.00;101568.44;5068092;28;20039;-66
2024/01/11 07:27:50;;;;;;;13.40;6.03;;;;;;;-4.21;100.00;101573.50;5069245;28;20024;-66
2024/01/11 07:30:18;;;;;;;22.13;5.18;;;;;;;-4.14;100.00;101573.38;5068460;28;20347;-66
2024/01/11 07:32:43;;;;;;;14.60;5.40;;;;;;;-4.08;100.00;101575.00;5068411;28;24521;-66
2024/01/11 07:35:10;;;;;;;12.95;5.18;;;;;;;-3.99;100.00;101574.00;5067882;28;20393;-67
2024/01/11 07:37:36;;;;;;;15.98;6.32;;;;;;;-3.97;100.00;101573.09;5067364;28;20032;-66
2024/01/11 07:40:02;;;;;;;10.35;5.88;;;;;;;-3.89;100.00;101571.28;5067722;28;20028;-66
2024/01/11 07:42:28;;;;;;;20.08;6.95;;;;;;;-3.82;100.00;101572.03;5061579;28;20040;-66
2024/01/11 07:44:53;;;;;;;11.80;6.07;;;;;;;-3.77;100.00;101573.59;5067211;28;20044;-66
2024/01/11 07:47:18;;;;;;;18.00;6.90;;;;;;;-3.72;100.00;101571.81;5073393;28;20051;-66
2024/01/11 07:49:44;;;;;;;13.30;6.05;;;;;;;-3.66;100.00;101575.94;5068352;28;20047;-66
2024/01/11 07:52:09;;;;;;;19.02;6.65;;;;;;;-3.51;100.00;101572.28;5072443;28;20127;-66
2024/01/11 07:54:35;;;;;;;17.88;6.30;;;;;;;-3.29;99.45;101575.25;5071893;28;20107;-66
2024/01/11 07:57:02;;;;;;;22.85;7.00;;;;;;;-3.15;98.87;101571.56;5069143;28;20509;-66
2024/01/11 07:59:32;;;;;;;21.58;8.27;;;;;;;-3.08;99.01;101572.28;5072032;28;20538;-66
2024/01/11 08:01:57;;;;;;;21.42;8.55;;;;;;;-3.06;99.34;101570.56;5068901;28;20029;-66
2024/01/11 08:04:23;;;;;;;19.90;7.90;;;;;;;-3.03;99.52;101571.34;5072173;28;20397;-66
2024/01/11 08:06:48;;;;;;;14.18;7.78;;;;;;;-3.00;100.00;101565.31;5068284;28;20114;-66
2024/01/11 08:09:14;;;;;;;25.90;9.15;;;;;;;-2.97;100.00;101560.16;5072609;28;20040;-66
2024/01/11 08:11:41;;;;;;;18.63;9.48;;;;;;;-2.90;100.00;101566.81;5071167;28;20102;-66
2024/01/11 08:14:06;;;;;;;30.13;8.88;;;;;;;-2.85;100.00;101566.72;5074574;28;20056;-65
2024/01/11 08:16:32;;;;;;;26.55;10.30;;;;;;;-2.72;100.00;101568.13;5068231;28;20450;-65
2024/01/11 08:18:58;;;;;;;25.58;8.75;;;;;;;-2.65;100.00;101574.75;5071717;28;20485;-65
2024/01/11 08:21:24;;;;;;;28.48;9.25;;;;;;;-2.55;99.99;101576.25;5072509;28;20041;-65
2024/01/11 08:23:50;;;;;;;13.55;8.10;;;;;;;-2.51;99.74;101575.31;5067453;28;20032;-65
2024/01/11 08:26:15;;;;;;;25.08;9.40;;;;;;;-2.48;99.72;101579.50;5070099;28;20155;-65
2024/01/11 08:28:42;;;;;;;13.82;7.20;;;;;;;-2.48;100.00;101577.78;5063750;28;20434;-66
2024/01/11 08:31:08;;;;;;;21.23;8.02;;;;;;;-2.36;100.00;101574.09;5069025;28;20403;-65
2024/01/11 08:33:34;;;;;;;27.38;9.02;;;;;;;-2.24;100.00;101573.81;5068576;28;20052;-65
2024/01/11 08:35:59;;;;;;;16.88;8.13;;;;;;;-2.10;99.38;101568.38;5072026;28;20420;-65
2024/01/11 08:38:25;;;;;;;17.88;7.38;;;;;;;-2.03;98.77;101562.25;5071474;28;20055;-66
2024/01/11 08:40:51;;;;;;;18.17;7.85;;;;;;;-1.90;98.54;101552.56;5070196;28;20029;-65
2024/01/11 08:43:17;;;;;;;19.23;7.38;;;;;;;-1.78;96.90;101563.28;5068242;28;20130;-66
2024/01/11 08:45:43;;;;;;;21.33;9.18;;;;;;;-1.35;90.36;101551.91;5066932;28;20020;-65
2024/01/11 08:48:09;;;;;;;25.45;9.73;;;;;;;-0.89;87.79;101548.03;5069435;28;20189;-65
2024/01/11 08:50:35;;;;;;;24.50;9.10;;;;;;;-0.68;87.24;101552.53;5062321;28;20035;-66
2024/01/11 08:53:00;;;;;;;22.88;8.55;;;;;;;-0.63;86.39;101553.22;5071268;28;20108;-65
2024/01/11 08:55:26;;;;;;;23.38;9.25;;;;;;;-0.43;85.57;101550.88;5067075;28;20123;-65
2024/01/11 08:57:52;;;;;;;23.63;9.43;;;;;;;-0.45;86.19;101551.78;5070284;28;20111;-65
2024/01/11 09:00:17;;;;;;;20.67;6.82;;;;;;;-0.46;85.35;101552.69;5072111;28;20042;-65
2024/01/11 09:02:46;;;;;;;18.75;5.90;;;;;;;-0.48;86.49;101546.81;5069258;28;24216;-65
2024/01/11 09:05:14;;;;;;;11.45;3.22;;;;;;;-0.21;83.85;101537.38;5069380;28;20055;-66
2024/01/11 09:07:40;;;;;;;16.55;5.25;;;;;;;0.08;82.33;101550.06;5068440;28;20059;-65
2024/01/11 09:10:08;;;;;;;14.55;4.43;;;;;;;0.35;80.52;101555.16;5066080;28;20569;-65
2024/01/11 09:12:34;;;;;;;8.63;3.28;;;;;;;0.39;80.40;101551.59;5068376;28;20487;-66
2024/01/11 09:14:59;;;;;;;6.68;3.08;;;;;;;0.46;78.25;101550.50;5070389;28;20071;-65
2024/01/11 09:17:25;;;;;;;6.20;1.90;;;;;;;0.68;77.22;101546.25;5065704;28;20107;-65
2024/01/11 09:19:51;;;;;;;8.75;2.58;;;;;;;0.62;77.95;101543.91;5071137;28;20565;-65
2024/01/11 09:22:17;;;;;;;10.68;2.80;;;;;;;0.59;79.01;101544.00;5069080;28;20056;-65
2024/01/11 09:24:42;;;;;;;9.68;3.38;;;;;;;0.56;78.37;101544.97;5067050;28;20032;-66
2024/01/11 09:27:08;;;;;;;8.70;2.85;;;;;;;0.51;78.51;101543.44;5069395;28;20103;-66
2024/01/11 09:29:33;;;;;;;8.15;2.88;;;;;;;0.48;78.98;101543.56;5069663;28;20090;-66
2024/01/11 09:31:59;;;;;;;11.60;2.15;;;;;;;0.58;75.78;101547.47;5069954;28;20032;-66
2024/01/11 09:34:25;;;;;;;4.85;2.03;;;;;;;0.96;75.93;101543.50;5069415;28;20067;-66
2024/01/11 09:36:50;;;;;;;9.30;2.40;;;;;;;1.05;77.20;101537.19;5067820;28;20048;-66
2024/01/11 09:39:16;;;;;;;7.45;2.10;;;;;;;1.11;75.43;101532.66;5068610;28;20033;-66
2024/01/11 09:41:55;;;;;;;13.30;2.55;;;;;;;1.17;76.94;101535.00;5064397;28;20037;-66
2024/01/11 09:44:21;;;;;;;6.93;1.92;;;;;;;1.17;76.56;101527.31;5062841;28;20050;-66
2024/01/11 09:46:47;;;;;;;7.95;2.17;;;;;;;1.15;75.90;101518.00;5069697;28;20032;-66
2024/01/11 09:49:14;;;;;;;7.97;2.75;;;;;;;1.46;66.71;101528.72;5067533;28;20458;-67
2024/01/11 09:51:43;;;;;;;4.10;1.40;;;;;;;1.75;70.06;101519.88;5061885;28;20032;-66
2024/01/11 09:54:10;;;;;;;5.25;1.60;;;;;;;1.93;66.73;101515.69;5057699;28;20048;-66
2024/01/11 09:56:36;;;;;;;5.75;1.55;;;;;;;2.06;69.59;101514.28;5065328;28;20079;-67
2024/01/11 09:59:06;;;;;;;6.05;1.65;;;;;;;1.90;69.02;101508.94;5063700;28;20032;-66
2024/01/11 10:01:31;;;;;;;7.38;1.75;;;;;;;2.03;65.48;101504.13;5066789;28;20111;-66
2024/01/11 10:03:57;;;;;;;4.40;1.52;;;;;;;2.25;62.93;101504.88;5067459;28;20120;-67
2024/01/11 10:06:24;;;;;;;8.25;2.00;;;;;;;2.26;72.23;101501.41;5066448;28;20043;-66
2024/01/11 10:08:49;;;;;;;6.97;2.22;;;;;;;2.09;72.36;101500.44;5064209;28;20074;-66
2024/01/11 10:11:14;;;;;;;9.85;1.75;;;;;;;2.12;71.28;101495.19;5066491;28;20404;-66
2024/01/11 10:13:40;;;;;;;5.53;2.15;;;;;;;2.28;72.58;101491.91;5063761;28;20505;-66
2024/01/11 10:16:15;;;;;;;6.57;2.15;;;;;;;2.13;73.44;101489.97;5067214;28;20032;-66
2024/01/11 10:18:42;;;;;;;13.38;2.42;;;;;;;2.02;74.68;101487.03;5067944;28;20036;-66
2024/01/11 10:21:09;;;;;;;5.10;1.70;;;;;;;2.13;73.02;101489.97;5065747;28;20033;-67
2024/01/11 10:23:35;;;;;;;8.77;2.13;;;;;;;2.10;73.81;101489.28;5063779;28;20055;-66
2024/01/11 10:26:02;;;;;;;8.48;1.90;;;;;;;2.02;74.75;101486.19;5066350;28;20024;-65
2024/01/11 10:28:28;;;;;;;6.18;2.85;;;;;;;1.99;74.72;101485.41;5066134;28;20029;-66
2024/01/11 10:30:54;;;;;;;5.75;2.25;;;;;;;2.03;75.07;101485.28;5060076;28;20124;-66
2024/01/11 10:33:23;;;;;;;7.03;2.72;;;;;;;2.01;74.68;101485.34;5066894;28;20037;-65
2024/01/11 10:35:49;;;;;;;4.53;1.90;;;;;;;2.05;75.24;101470.63;5063817;28;20485;-68
2024/01/11 10:38:15;;;;;;;6.38;2.15;;;;;;;2.44;71.21;101474.03;5065599;28;20102;-67
2024/01/11 10:40:42;;;;;;;5.78;2.20;;;;;;;2.82;67.70;101464.59;5068232;28;20024;-67
2024/01/11 10:43:11;;;;;;;7.63;2.45;;;;;;;2.83;69.67;101455.13;5068606;28;20063;-67
2024/01/11 10:45:38;;;;;;;5.65;1.40;;;;;;;2.82;70.53;101454.31;5068957;28;20040;-66
2024/01/11 10:48:07;;;;;;;5.63;1.00;;;;;;;2.85;68.60;101449.00;5063778;28;20045;-66
2024/01/11 10:50:39;;;;;;;7.47;1.20;;;;;;;3.06;65.03;101449.72;5065517;28;20478;-66
2024/01/11 10:53:17;;;;;;;5.68;1.70;;;;;;;3.30;67.22;101450.31;5066411;28;20045;-66
2024/01/11 10:55:44;;;;;;;6.20;1.30;;;;;;;3.24;69.88;101441.13;5065303;28;20040;-66
2024/01/11 10:58:11;;;;;;;5.00;1.60;;;;;;;3.19;70.16;101444.84;5066403;28;20569;-66
2024/01/11 11:00:37;;;;;;;4.82;1.23;;;;;;;3.20;68.97;101438.78;5067599;28;20481;-66
2024/01/11 11:03:06;;;;;;;5.68;1.27;;;;;;;3.27;66.79;101429.84;5065435;28;20116;-66
2024/01/11 11:05:35;;;;;;;3.25;1.15;;;;;;;3.56;61.68;101421.50;5065480;28;20035;-66
2024/01/11 11:08:02;;;;;;;3.30;1.10;;;;;;;3.81;64.03;101421.09;5067452;28;20048;-66
2024/01/11 11:10:29;;;;;;;3.70;1.30;;;;;;;3.72;66.81;101423.34;5068105;28;20033;-67